createdAt,value
2024-03-06T00:00:06.456Z,6.90
2024-03-06T00:05:09.606Z,6.90
2024-03-06T00:10:11.798Z,6.80
2024-03-06T00:15:13.747Z,6.90
2024-03-06T00:20:15.792Z,6.90
2024-03-06T00:25:17.723Z,6.90
2024-03-06T00:30:19.738Z,6.90
2024-03-06T00:35:21.660Z,6.90
2024-03-06T00:40:23.513Z,6.90
2024-03-06T00:45:25.648Z,6.90
2024-03-06T00:50:27.474Z,7.00
2024-03-06T00:55:29.343Z,7.00
2024-03-06T01:00:31.574Z,6.90
2024-03-06T01:05:33.617Z,7.00
2024-03-06T01:10:35.517Z,6.90
2024-03-06T01:15:39.831Z,7.00
2024-03-06T01:20:41.648Z,6.80
2024-03-06T01:25:43.493Z,6.90
2024-03-06T01:30:45.305Z,6.80
2024-03-06T01:35:47.097Z,6.80
2024-03-06T01:40:49.079Z,6.80
2024-03-06T01:45:51.500Z,6.80
2024-03-06T01:50:56.724Z,6.80
2024-03-06T01:55:59.009Z,6.80
2024-03-06T02:01:01.250Z,6.80
2024-03-06T02:06:05.522Z,6.90
2024-03-06T02:11:08.376Z,6.80
2024-03-06T02:16:13.364Z,6.80
2024-03-06T02:21:15.690Z,6.90
2024-03-06T02:26:17.921Z,6.90
2024-03-06T02:31:20.858Z,6.80
2024-03-06T02:36:23.042Z,6.70
2024-03-06T02:41:24.864Z,6.70
2024-03-06T02:46:26.970Z,6.70
2024-03-06T02:51:28.829Z,6.70
2024-03-06T02:56:30.624Z,6.60
2024-03-06T03:01:32.616Z,6.60
2024-03-06T03:06:34.603Z,6.60
2024-03-06T03:11:36.992Z,6.50
2024-03-06T03:16:38.861Z,6.50
2024-03-06T03:21:44.704Z,6.40
2024-03-06T03:26:46.496Z,6.30
2024-03-06T03:31:48.482Z,6.30
2024-03-06T03:36:50.324Z,6.30
2024-03-06T03:41:52.324Z,6.30
2024-03-06T03:46:54.205Z,6.20
2024-03-06T03:51:56.176Z,6.10
2024-03-06T03:57:00.179Z,6.10
2024-03-06T04:02:02.037Z,6.10
2024-03-06T04:07:03.981Z,6.20
2024-03-06T04:12:06.155Z,6.10
2024-03-06T04:17:08.170Z,6.00
2024-03-06T04:22:10.107Z,6.20
2024-03-06T04:27:12.087Z,6.10
2024-03-06T04:32:13.925Z,6.10
2024-03-06T04:37:15.873Z,6.10
2024-03-06T04:42:17.732Z,6.10
2024-03-06T04:47:20.406Z,6.10
2024-03-06T04:52:22.241Z,6.20
2024-03-06T04:57:24.088Z,6.10
2024-03-06T05:02:28.709Z,6.20
2024-03-06T06:00:50.650Z,6.40
2024-03-06T06:05:52.576Z,6.40
2024-03-06T06:10:56.050Z,6.50
2024-03-06T06:16:03.845Z,6.50
2024-03-06T06:21:08.517Z,6.60
2024-03-06T06:26:11.693Z,6.70
2024-03-06T06:31:13.776Z,6.60
2024-03-06T06:36:15.677Z,6.60
2024-03-06T06:41:18.725Z,6.60
2024-03-06T06:46:22.222Z,6.60
2024-03-06T06:51:24.675Z,6.70
2024-03-06T06:56:27.079Z,6.70
2024-03-06T07:01:29.054Z,6.60
2024-03-06T07:06:30.952Z,6.60
2024-03-06T07:11:32.777Z,6.60
2024-03-06T07:16:34.628Z,6.60
2024-03-06T07:21:37.029Z,6.50
2024-03-06T07:26:38.966Z,6.60
2024-03-06T07:31:42.178Z,6.70
2024-03-06T07:36:44.007Z,6.60
2024-03-06T07:41:45.885Z,6.70
2024-03-06T07:46:47.882Z,6.80
2024-03-06T07:51:49.959Z,6.90
2024-03-06T07:56:52.264Z,7.00
2024-03-06T08:01:54.183Z,7.10
2024-03-06T08:06:55.981Z,7.20
2024-03-06T08:11:57.862Z,7.30
2024-03-06T08:16:59.768Z,7.60
2024-03-06T08:22:05.552Z,7.70
2024-03-06T08:27:08.725Z,7.60
2024-03-06T08:32:10.606Z,7.60
2024-03-06T08:37:14.003Z,7.90
2024-03-06T08:42:19.589Z,7.90
2024-03-06T08:47:21.548Z,8.30
2024-03-06T08:52:23.445Z,8.90
2024-03-06T08:57:27.585Z,9.30
2024-03-06T09:02:29.651Z,9.50
2024-03-06T09:07:31.503Z,9.10
2024-03-06T09:12:33.674Z,9.80
2024-03-06T09:17:35.857Z,10.10
2024-03-06T09:22:39.079Z,10.60
2024-03-06T09:27:40.888Z,9.90
2024-03-06T09:32:44.957Z,9.60
2024-03-06T09:37:47.589Z,9.60
2024-03-06T09:42:53.036Z,9.50
2024-03-06T09:47:55.379Z,9.40
2024-03-06T09:52:57.762Z,9.40
2024-03-06T09:58:00.132Z,9.30
2024-03-06T10:03:09.068Z,9.30
2024-03-06T10:08:10.993Z,9.20
2024-03-06T10:13:12.847Z,9.00
2024-03-06T10:18:16.781Z,9.10
2024-03-06T10:23:19.924Z,9.00
2024-03-06T10:28:23.998Z,9.00
2024-03-06T10:33:27.867Z,9.00
2024-03-06T10:38:37.138Z,9.10
2024-03-06T10:43:40.957Z,9.20
2024-03-06T10:48:45.846Z,9.40
2024-03-06T10:53:49.745Z,9.70
2024-03-06T10:58:53.233Z,9.60
2024-03-06T11:03:55.991Z,9.70
2024-03-06T11:08:57.834Z,9.80
2024-03-06T11:14:05.329Z,10.40
2024-03-06T11:19:08.816Z,10.70
2024-03-06T11:24:20.430Z,11.00
2024-03-06T11:29:22.601Z,11.20
2024-03-06T11:34:25.670Z,11.70
2024-03-06T11:39:35.172Z,11.30
2024-03-06T11:44:37.985Z,11.60
2024-03-06T11:49:41.596Z,11.10
2024-03-06T11:54:44.188Z,11.00
2024-03-06T11:59:46.088Z,10.90
2024-03-06T12:04:47.934Z,10.80
2024-03-06T12:09:49.806Z,10.70
2024-03-06T12:15:05.158Z,10.60
2024-03-06T12:20:13.649Z,10.60
2024-03-06T12:25:23.280Z,10.40
2024-03-06T12:30:25.167Z,10.40
2024-03-06T12:35:27.606Z,10.50
2024-03-06T12:40:29.684Z,11.00
2024-03-06T12:45:31.657Z,10.90
2024-03-06T12:50:33.869Z,10.70
2024-03-06T12:55:36.689Z,10.80
2024-03-06T13:00:38.973Z,11.20
2024-03-06T13:05:41.575Z,11.20
2024-03-06T13:10:43.971Z,11.40
2024-03-06T13:15:47.432Z,11.30
2024-03-06T13:20:50.066Z,11.40
2024-03-06T13:25:51.987Z,12.10
2024-03-06T13:30:53.851Z,12.70
2024-03-06T13:35:56.966Z,12.60
2024-03-06T13:40:59.099Z,13.00
2024-03-06T13:46:01.067Z,12.90
2024-03-06T13:51:03.141Z,12.20
2024-03-06T13:56:05.486Z,12.50
2024-03-06T14:01:07.522Z,12.70
2024-03-06T14:06:10.797Z,12.40
2024-03-06T14:11:12.926Z,13.00
2024-03-06T14:16:14.892Z,12.50
2024-03-06T14:21:16.798Z,12.40
2024-03-06T14:26:18.744Z,12.80
2024-03-06T14:31:20.590Z,12.80
2024-03-06T14:36:26.424Z,12.60
2024-03-06T14:41:28.363Z,12.30
2024-03-06T14:46:30.435Z,11.90
2024-03-06T14:51:32.309Z,11.60
2024-03-06T14:56:34.272Z,11.70
2024-03-06T15:01:38.168Z,11.60
2024-03-06T15:06:40.633Z,11.50
2024-03-06T15:11:42.616Z,11.30
2024-03-06T15:16:45.514Z,11.50
2024-03-06T15:21:47.395Z,11.10
2024-03-06T15:26:49.274Z,10.80
2024-03-06T15:31:51.113Z,10.90
2024-03-06T15:36:55.255Z,11.10
2024-03-06T15:41:58.827Z,11.00
2024-03-06T15:47:06.988Z,10.70
2024-03-06T15:52:13.034Z,10.50
2024-03-06T15:57:19.375Z,10.40
2024-03-06T16:02:21.397Z,10.20
2024-03-06T16:07:23.437Z,10.00
2024-03-06T16:12:25.532Z,9.90
2024-03-06T16:17:27.773Z,9.80
2024-03-06T16:22:29.726Z,9.70
2024-03-06T16:27:31.562Z,9.70
2024-03-06T16:32:33.408Z,9.50
2024-03-06T16:37:36.085Z,9.50
2024-03-06T16:42:37.890Z,9.40
2024-03-06T16:47:39.819Z,9.20
2024-03-06T16:52:42.529Z,9.10
2024-03-06T16:57:44.466Z,8.90
2024-03-06T17:02:46.511Z,8.70
2024-03-06T17:07:49.194Z,8.50
2024-03-06T17:12:51.059Z,8.30
2024-03-06T17:17:53.083Z,8.20
2024-03-06T17:22:56.836Z,7.90
2024-03-06T17:27:58.912Z,7.70
2024-03-06T17:33:02.938Z,7.60
2024-03-06T17:38:05.034Z,7.50
2024-03-06T17:43:06.989Z,7.50
2024-03-06T17:48:09.258Z,7.60
2024-03-06T17:53:11.277Z,7.60
2024-03-06T17:58:13.399Z,7.70
2024-03-06T18:03:15.327Z,7.90
2024-03-06T18:08:18.045Z,8.00
2024-03-06T18:13:20.128Z,8.00
2024-03-06T18:18:22.045Z,7.90
2024-03-06T18:23:26.092Z,7.80
2024-03-06T18:28:28.096Z,7.90
2024-03-06T18:33:30.032Z,7.90
2024-03-06T18:38:34.891Z,7.90
2024-03-06T18:43:36.673Z,7.90
2024-03-06T18:48:38.528Z,7.90
2024-03-06T18:53:40.432Z,7.80
2024-03-06T18:58:42.279Z,7.90
2024-03-06T19:03:44.175Z,7.90
2024-03-06T19:08:47.685Z,7.80
2024-03-06T19:13:49.601Z,7.70
2024-03-06T19:18:51.516Z,7.60
2024-03-06T19:23:53.424Z,7.60
2024-03-06T19:28:55.318Z,7.50
2024-03-06T19:33:57.251Z,7.40
2024-03-06T19:38:59.370Z,7.40
2024-03-06T19:44:01.210Z,7.40
2024-03-06T19:49:03.008Z,7.40
2024-03-06T19:54:06.481Z,7.30
2024-03-06T19:59:08.903Z,7.20
2024-03-06T20:04:10.793Z,7.10
2024-03-06T20:09:14.954Z,6.90
2024-03-06T20:14:17.137Z,6.90
2024-03-06T20:19:19.116Z,6.70
2024-03-06T20:24:21.441Z,6.60
2024-03-06T20:29:23.802Z,6.60
2024-03-06T20:34:25.699Z,6.40
2024-03-06T20:39:27.708Z,6.30
2024-03-06T20:44:29.538Z,6.20
2024-03-06T20:49:31.658Z,6.10
2024-03-06T20:54:34.426Z,5.90
2024-03-06T20:59:36.296Z,5.80
2024-03-06T21:04:38.273Z,5.70
2024-03-06T21:09:40.237Z,5.60
2024-03-06T21:14:42.176Z,5.50
2024-03-06T21:19:44.101Z,5.20
2024-03-06T21:24:45.914Z,5.10
2024-03-06T21:29:50.925Z,5.00
2024-03-06T21:34:52.780Z,4.90
2024-03-06T21:39:54.608Z,4.90
2024-03-06T21:44:56.562Z,4.80
2024-03-06T21:49:58.444Z,4.70
2024-03-06T21:55:00.511Z,4.70
2024-03-06T22:00:02.374Z,4.70
2024-03-06T22:05:07.992Z,4.80
2024-03-06T22:10:10.109Z,4.80
2024-03-06T22:15:12.101Z,4.80
2024-03-06T22:20:14.027Z,4.80
2024-03-06T22:25:16.045Z,4.80
2024-03-06T22:30:18.092Z,4.80
2024-03-06T22:35:21.089Z,4.90
2024-03-06T22:40:22.937Z,4.80
2024-03-06T22:45:27.554Z,4.70
2024-03-06T22:50:29.507Z,4.60
2024-03-06T22:55:33.459Z,4.60
2024-03-06T23:00:39.403Z,4.50
2024-03-06T23:05:43.672Z,4.40
2024-03-06T23:10:45.671Z,4.30
2024-03-06T23:15:47.682Z,4.30
2024-03-06T23:20:50.012Z,4.40
2024-03-06T23:25:52.061Z,4.40
2024-03-06T23:30:53.879Z,4.30
2024-03-06T23:35:55.882Z,4.20
2024-03-06T23:40:57.860Z,4.20
2024-03-06T23:45:59.827Z,4.10
2024-03-06T23:51:01.764Z,4.00
2024-03-06T23:56:03.851Z,3.90
